sensor_id;sensor_type;location;lat;lon;timestamp;pressure;altitude;pressure_sealevel;temperature;humidity
44131;BME280;29792;48.726;9.248;2022-11-12T00:00:26;98472.88;;;6.31;100.00
44131;BME280;29792;48.726;9.248;2022-11-12T00:02:52;98470.41;;;6.29;100.00
44131;BME280;29792;48.726;9.248;2022-11-12T00:05:17;98456.00;;;6.28;100.00
44131;BME280;29792;48.726;9.248;2022-11-12T00:07:42;98454.31;;;6.29;100.00
44131;BME280;29792;48.726;9.248;2022-11-12T00:10:08;98455.19;;;6.28;100.00
44131;BME280;29792;48.726;9.248;2022-11-12T00:12:33;98451.81;;;6.27;100.00
44131;BME280;29792;48.726;9.248;2022-11-12T00:14:58;98446.88;;;6.24;100.00
44131;BME280;29792;48.726;9.248;2022-11-12T00:17:24;98455.38;;;6.23;100.00
44131;BME280;29792;48.726;9.248;2022-11-12T00:19:49;98461.34;;;6.22;100.00
44131;BME280;29792;48.726;9.248;2022-11-12T00:22:14;98464.78;;;6.21;100.00
44131;BME280;29792;48.726;9.248;2022-11-12T00:24:40;98457.19;;;6.20;100.00
44131;BME280;29792;48.726;9.248;2022-11-12T00:27:05;98458.09;;;6.19;100.00
44131;BME280;29792;48.726;9.248;2022-11-12T00:29:30;98450.44;;;6.19;100.00
44131;BME280;29792;48.726;9.248;2022-11-12T00:31:56;98454.78;;;6.17;100.00
44131;BME280;29792;48.726;9.248;2022-11-12T00:34:21;98454.03;;;6.15;100.00
44131;BME280;29792;48.726;9.248;2022-11-12T00:36:46;98453.34;;;6.09;100.00
44131;BME280;29792;48.726;9.248;2022-11-12T00:39:12;98453.53;;;6.05;100.00
44131;BME280;29792;48.726;9.248;2022-11-12T00:41:37;98452.06;;;5.99;100.00
44131;BME280;29792;48.726;9.248;2022-11-12T00:44:02;98460.81;;;5.92;100.00
44131;BME280;29792;48.726;9.248;2022-11-12T00:46:28;98462.78;;;5.84;100.00
44131;BME280;29792;48.726;9.248;2022-11-12T00:48:53;98447.59;;;5.83;100.00
44131;BME280;29792;48.726;9.248;2022-11-12T00:51:18;98454.44;;;5.81;100.00
44131;BME280;29792;48.726;9.248;2022-11-12T00:53:46;98450.19;;;5.81;100.00
44131;BME280;29792;48.726;9.248;2022-11-12T00:56:13;98447.69;;;5.80;100.00
44131;BME280;29792;48.726;9.248;2022-11-12T00:58:38;98452.84;;;5.78;100.00
44131;BME280;29792;48.726;9.248;2022-11-12T01:01:06;98446.19;;;5.75;100.00
44131;BME280;29792;48.726;9.248;2022-11-12T01:03:32;98447.06;;;5.74;100.00
44131;BME280;29792;48.726;9.248;2022-11-12T01:06:04;98448.03;;;5.70;100.00
44131;BME280;29792;48.726;9.248;2022-11-12T01:08:30;98448.22;;;5.66;100.00
44131;BME280;29792;48.726;9.248;2022-11-12T01:11:04;98465.44;;;5.59;100.00
44131;BME280;29792;48.726;9.248;2022-11-12T01:13:29;98452.09;;;5.53;100.00
44131;BME280;29792;48.726;9.248;2022-11-12T01:15:54;98453.97;;;5.48;100.00
44131;BME280;29792;48.726;9.248;2022-11-12T01:18:19;98449.97;;;5.42;100.00
44131;BME280;29792;48.726;9.248;2022-11-12T01:20:45;98454.41;;;5.35;100.00
44131;BME280;29792;48.726;9.248;2022-11-12T01:23:10;98456.41;;;5.27;100.00
44131;BME280;29792;48.726;9.248;2022-11-12T01:25:36;98449.00;;;5.21;100.00
44131;BME280;29792;48.726;9.248;2022-11-12T01:28:02;98450.00;;;5.17;100.00
44131;BME280;29792;48.726;9.248;2022-11-12T01:30:27;98450.16;;;5.13;100.00
44131;BME280;29792;48.726;9.248;2022-11-12T01:32:52;98439.28;;;5.09;100.00
44131;BME280;29792;48.726;9.248;2022-11-12T01:35:18;98435.97;;;5.07;100.00
44131;BME280;29792;48.726;9.248;2022-11-12T01:37:43;98442.00;;;5.03;100.00
44131;BME280;29792;48.726;9.248;2022-11-12T01:40:09;98432.91;;;4.97;100.00
44131;BME280;29792;48.726;9.248;2022-11-12T01:42:34;98439.88;;;4.92;100.00
44131;BME280;29792;48.726;9.248;2022-11-12T01:44:59;98431.72;;;4.83;100.00
44131;BME280;29792;48.726;9.248;2022-11-12T01:47:30;98427.78;;;4.74;100.00
44131;BME280;29792;48.726;9.248;2022-11-12T01:50:04;98421.31;;;4.66;100.00
44131;BME280;29792;48.726;9.248;2022-11-12T01:52:39;98419.00;;;4.59;100.00
44131;BME280;29792;48.726;9.248;2022-11-12T01:55:10;98417.34;;;4.58;100.00
44131;BME280;29792;48.726;9.248;2022-11-12T01:57:45;98413.19;;;4.56;100.00
44131;BME280;29792;48.726;9.248;2022-11-12T02:00:13;98415.75;;;4.54;100.00
44131;BME280;29792;48.726;9.248;2022-11-12T02:02:39;98420.97;;;4.51;100.00
44131;BME280;29792;48.726;9.248;2022-11-12T02:05:09;98416.03;;;4.47;100.00
44131;BME280;29792;48.726;9.248;2022-11-12T02:07:38;98410.22;;;4.43;100.00
44131;BME280;29792;48.726;9.248;2022-11-12T02:10:06;98412.19;;;4.35;100.00
44131;BME280;29792;48.726;9.248;2022-11-12T02:12:32;98409.03;;;4.29;100.00
44131;BME280;29792;48.726;9.248;2022-11-12T02:15:16;98414.09;;;4.29;100.00
44131;BME280;29792;48.726;9.248;2022-11-12T02:17:42;98403.09;;;4.30;100.00
44131;BME280;29792;48.726;9.248;2022-11-12T02:20:09;98404.69;;;4.32;100.00
44131;BME280;29792;48.726;9.248;2022-11-12T02:22:35;98401.22;;;4.35;100.00
44131;BME280;29792;48.726;9.248;2022-11-12T02:25:00;98402.00;;;4.37;100.00
44131;BME280;29792;48.726;9.248;2022-11-12T02:27:26;98399.41;;;4.38;100.00
44131;BME280;29792;48.726;9.248;2022-11-12T02:29:51;98395.84;;;4.44;100.00
44131;BME280;29792;48.726;9.248;2022-11-12T02:32:17;98400.09;;;4.43;100.00
44131;BME280;29792;48.726;9.248;2022-11-12T02:34:42;98393.34;;;4.42;100.00
44131;BME280;29792;48.726;9.248;2022-11-12T02:37:07;98396.72;;;4.43;100.00
44131;BME280;29792;48.726;9.248;2022-11-12T02:39:33;98392.56;;;4.40;100.00
44131;BME280;29792;48.726;9.248;2022-11-12T02:41:58;98391.03;;;4.36;100.00
44131;BME280;29792;48.726;9.248;2022-11-12T02:44:24;98391.94;;;4.34;100.00
44131;BME280;29792;48.726;9.248;2022-11-12T02:46:49;98389.56;;;4.29;100.00
44131;BME280;29792;48.726;9.248;2022-11-12T02:49:14;98394.75;;;4.26;100.00
44131;BME280;29792;48.726;9.248;2022-11-12T02:51:40;98399.19;;;4.19;100.00
44131;BME280;29792;48.726;9.248;2022-11-12T02:54:05;98400.16;;;4.15;100.00
44131;BME280;29792;48.726;9.248;2022-11-12T02:56:30;98397.81;;;4.09;100.00
44131;BME280;29792;48.726;9.248;2022-11-12T02:58:56;98402.25;;;4.03;100.00
44131;BME280;29792;48.726;9.248;2022-11-12T03:01:21;98405.91;;;3.94;100.00
44131;BME280;29792;48.726;9.248;2022-11-12T03:03:47;98406.09;;;3.88;100.00
44131;BME280;29792;48.726;9.248;2022-11-12T03:06:12;98402.03;;;3.82;100.00
44131;BME280;29792;48.726;9.248;2022-11-12T03:08:37;98408.09;;;3.78;100.00
44131;BME280;29792;48.726;9.248;2022-11-12T03:11:08;98403.94;;;3.76;100.00
44131;BME280;29792;48.726;9.248;2022-11-12T03:13:34;98408.19;;;3.74;100.00
44131;BME280;29792;48.726;9.248;2022-11-12T03:16:00;98401.53;;;3.71;100.00
44131;BME280;29792;48.726;9.248;2022-11-12T03:18:25;98401.59;;;3.70;100.00
44131;BME280;29792;48.726;9.248;2022-11-12T03:20:51;98403.31;;;3.68;100.00
44131;BME280;29792;48.726;9.248;2022-11-12T03:23:16;98397.38;;;3.69;100.00
44131;BME280;29792;48.726;9.248;2022-11-12T03:25:42;98403.28;;;3.69;100.00
44131;BME280;29792;48.726;9.248;2022-11-12T03:28:12;98389.81;;;3.67;100.00
44131;BME280;29792;48.726;9.248;2022-11-12T03:30:40;98399.13;;;3.67;100.00
44131;BME280;29792;48.726;9.248;2022-11-12T03:33:07;98393.38;;;3.62;100.00
44131;BME280;29792;48.726;9.248;2022-11-12T03:35:33;98398.50;;;3.60;100.00
44131;BME280;29792;48.726;9.248;2022-11-12T03:37:59;98392.72;;;3.57;100.00
44131;BME280;29792;48.726;9.248;2022-11-12T03:40:25;98384.28;;;3.56;100.00
44131;BME280;29792;48.726;9.248;2022-11-12T03:42:51;98387.56;;;3.58;100.00
44131;BME280;29792;48.726;9.248;2022-11-12T03:45:18;98388.41;;;3.59;100.00
44131;BME280;29792;48.726;9.248;2022-11-12T03:47:46;98398.50;;;3.60;100.00
44131;BME280;29792;48.726;9.248;2022-11-12T03:50:12;98392.56;;;3.61;100.00
44131;BME280;29792;48.726;9.248;2022-11-12T03:52:38;98402.69;;;3.61;100.00
44131;BME280;29792;48.726;9.248;2022-11-12T03:55:04;98405.13;;;3.64;100.00
44131;BME280;29792;48.726;9.248;2022-11-12T03:57:30;98411.84;;;3.65;100.00
44131;BME280;29792;48.726;9.248;2022-11-12T03:59:55;98408.44;;;3.66;100.00
44131;BME280;29792;48.726;9.248;2022-11-12T04:02:20;98400.06;;;3.64;100.00
44131;BME280;29792;48.726;9.248;2022-11-12T04:04:45;98399.16;;;3.65;100.00
44131;BME280;29792;48.726;9.248;2022-11-12T04:07:29;98400.72;;;3.71;100.00
44131;BME280;29792;48.726;9.248;2022-11-12T04:10:13;98401.38;;;3.76;100.00
44131;BME280;29792;48.726;9.248;2022-11-12T04:12:39;98401.34;;;3.77;100.00
44131;BME280;29792;48.726;9.248;2022-11-12T04:15:23;98410.56;;;3.80;100.00
44131;BME280;29792;48.726;9.248;2022-11-12T04:17:48;98402.03;;;3.82;100.00
44131;BME280;29792;48.726;9.248;2022-11-12T04:20:32;98404.47;;;3.86;100.00
44131;BME280;29792;48.726;9.248;2022-11-12T04:23:15;98399.22;;;3.92;100.00
44131;BME280;29792;48.726;9.248;2022-11-12T04:25:41;98398.22;;;3.97;100.00
44131;BME280;29792;48.726;9.248;2022-11-12T04:28:25;98389.66;;;4.00;100.00
44131;BME280;29792;48.726;9.248;2022-11-12T04:30:50;98392.13;;;4.03;100.00
44131;BME280;29792;48.726;9.248;2022-11-12T04:33:15;98392.81;;;4.06;100.00
44131;BME280;29792;48.726;9.248;2022-11-12T04:35:40;98392.78;;;4.08;100.00
44131;BME280;29792;48.726;9.248;2022-11-12T04:38:05;98375.06;;;4.06;100.00
44131;BME280;29792;48.726;9.248;2022-11-12T04:40:31;98380.97;;;4.07;100.00
44131;BME280;29792;48.726;9.248;2022-11-12T04:43:16;98379.28;;;4.07;100.00
44131;BME280;29792;48.726;9.248;2022-11-12T04:46:01;98380.91;;;4.10;100.00
44131;BME280;29792;48.726;9.248;2022-11-12T04:48:27;98381.69;;;4.12;100.00
44131;BME280;29792;48.726;9.248;2022-11-12T04:50:55;98378.28;;;4.13;100.00
44131;BME280;29792;48.726;9.248;2022-11-12T04:53:22;98385.88;;;4.13;100.00
44131;BME280;29792;48.726;9.248;2022-11-12T04:55:51;98386.78;;;4.10;100.00
44131;BME280;29792;48.726;9.248;2022-11-12T04:58:17;98386.78;;;4.10;100.00
44131;BME280;29792;48.726;9.248;2022-11-12T05:00:43;98399.44;;;4.12;100.00
44131;BME280;29792;48.726;9.248;2022-11-12T05:03:08;98394.34;;;4.12;100.00
44131;BME280;29792;48.726;9.248;2022-11-12T05:05:33;98396.84;;;4.13;100.00
44131;BME280;29792;48.726;9.248;2022-11-12T05:08:00;98390.84;;;4.16;100.00
44131;BME280;29792;48.726;9.248;2022-11-12T05:10:25;98384.94;;;4.15;100.00
44131;BME280;29792;48.726;9.248;2022-11-12T05:12:50;98392.44;;;4.18;100.00
44131;BME280;29792;48.726;9.248;2022-11-12T05:15:16;98397.47;;;4.20;100.00
44131;BME280;29792;48.726;9.248;2022-11-12T05:17:42;98397.34;;;4.23;100.00
44131;BME280;29792;48.726;9.248;2022-11-12T05:20:09;98393.16;;;4.22;100.00
44131;BME280;29792;48.726;9.248;2022-11-12T05:22:34;98384.75;;;4.21;100.00
44131;BME280;29792;48.726;9.248;2022-11-12T05:25:00;98389.88;;;4.20;100.00
44131;BME280;29792;48.726;9.248;2022-11-12T05:27:25;98394.13;;;4.19;100.00
44131;BME280;29792;48.726;9.248;2022-11-12T05:29:50;98396.66;;;4.19;100.00
44131;BME280;29792;48.726;9.248;2022-11-12T05:32:16;98392.41;;;4.20;100.00
44131;BME280;29792;48.726;9.248;2022-11-12T05:34:42;98399.91;;;4.23;100.00
44131;BME280;29792;48.726;9.248;2022-11-12T05:37:10;98390.44;;;4.28;100.00
44131;BME280;29792;48.726;9.248;2022-11-12T05:39:35;98394.47;;;4.34;100.00
44131;BME280;29792;48.726;9.248;2022-11-12T05:42:00;98394.47;;;4.34;100.00
44131;BME280;29792;48.726;9.248;2022-11-12T05:44:26;98393.66;;;4.33;100.00
44131;BME280;29792;48.726;9.248;2022-11-12T05:46:51;98398.72;;;4.33;100.00
44131;BME280;29792;48.726;9.248;2022-11-12T05:49:16;98402.94;;;4.34;100.00
44131;BME280;29792;48.726;9.248;2022-11-12T05:51:43;98403.81;;;4.33;100.00
44131;BME280;29792;48.726;9.248;2022-11-12T05:54:08;98403.84;;;4.32;100.00
44131;BME280;29792;48.726;9.248;2022-11-12T05:56:34;98408.03;;;4.33;100.00
44131;BME280;29792;48.726;9.248;2022-11-12T05:59:02;98413.16;;;4.31;100.00
44131;BME280;29792;48.726;9.248;2022-11-12T06:01:27;98408.16;;;4.30;100.00
44131;BME280;29792;48.726;9.248;2022-11-12T06:03:53;98416.66;;;4.29;100.00
44131;BME280;29792;48.726;9.248;2022-11-12T06:06:18;98424.28;;;4.27;100.00
44131;BME280;29792;48.726;9.248;2022-11-12T06:08:43;98424.28;;;4.27;100.00
44131;BME280;29792;48.726;9.248;2022-11-12T06:11:08;98418.44;;;4.25;100.00
44131;BME280;29792;48.726;9.248;2022-11-12T06:13:34;98420.13;;;4.25;100.00
44131;BME280;29792;48.726;9.248;2022-11-12T06:15:59;98427.78;;;4.23;100.00
44131;BME280;29792;48.726;9.248;2022-11-12T06:18:24;98424.38;;;4.24;100.00
44131;BME280;29792;48.726;9.248;2022-11-12T06:20:50;98423.56;;;4.23;100.00
44131;BME280;29792;48.726;9.248;2022-11-12T06:23:34;98427.75;;;4.25;100.00
44131;BME280;29792;48.726;9.248;2022-11-12T06:25:59;98424.38;;;4.24;100.00
44131;BME280;29792;48.726;9.248;2022-11-12T06:28:25;98431.84;;;4.29;100.00
44131;BME280;29792;48.726;9.248;2022-11-12T06:30:50;98429.31;;;4.29;100.00
44131;BME280;29792;48.726;9.248;2022-11-12T06:33:16;98427.63;;;4.29;100.00
44131;BME280;29792;48.726;9.248;2022-11-12T06:35:41;98431.75;;;4.32;100.00
44131;BME280;29792;48.726;9.248;2022-11-12T06:38:06;98430.81;;;4.34;100.00
44131;BME280;29792;48.726;9.248;2022-11-12T06:40:32;98428.28;;;4.34;100.00
44131;BME280;29792;48.726;9.248;2022-11-12T06:42:57;98425.59;;;4.39;100.00
44131;BME280;29792;48.726;9.248;2022-11-12T06:45:22;98422.13;;;4.41;100.00
44131;BME280;29792;48.726;9.248;2022-11-12T06:47:48;98412.00;;;4.41;100.00
44131;BME280;29792;48.726;9.248;2022-11-12T06:50:13;98420.47;;;4.40;100.00
44131;BME280;29792;48.726;9.248;2022-11-12T06:52:39;98418.72;;;4.42;100.00
44131;BME280;29792;48.726;9.248;2022-11-12T06:55:04;98414.31;;;4.47;100.00
44131;BME280;29792;48.726;9.248;2022-11-12T06:57:30;98410.81;;;4.51;100.00
44131;BME280;29792;48.726;9.248;2022-11-12T06:59:55;98410.69;;;4.54;100.00
44131;BME280;29792;48.726;9.248;2022-11-12T07:02:20;98417.50;;;4.54;100.00
44131;BME280;29792;48.726;9.248;2022-11-12T07:04:46;98413.41;;;4.50;100.00
44131;BME280;29792;48.726;9.248;2022-11-12T07:07:11;98432.91;;;4.48;100.00
44131;BME280;29792;48.726;9.248;2022-11-12T07:09:36;98417.81;;;4.45;100.00
44131;BME280;29792;48.726;9.248;2022-11-12T07:12:01;98407.53;;;4.48;100.00
44131;BME280;29792;48.726;9.248;2022-11-12T07:14:27;98414.19;;;4.52;100.00
44131;BME280;29792;48.726;9.248;2022-11-12T07:16:52;98416.66;;;4.53;100.00
44131;BME280;29792;48.726;9.248;2022-11-12T07:19:17;98419.03;;;4.58;100.00
44131;BME280;29792;48.726;9.248;2022-11-12T07:21:42;98423.19;;;4.60;100.00
44131;BME280;29792;48.726;9.248;2022-11-12T07:24:08;98425.78;;;4.59;100.00
44131;BME280;29792;48.726;9.248;2022-11-12T07:26:33;98434.22;;;4.59;100.00
44131;BME280;29792;48.726;9.248;2022-11-12T07:28:58;98421.53;;;4.59;100.00
44131;BME280;29792;48.726;9.248;2022-11-12T07:31:24;98414.75;;;4.60;100.00
44131;BME280;29792;48.726;9.248;2022-11-12T07:33:50;98420.66;;;4.60;100.00
44131;BME280;29792;48.726;9.248;2022-11-12T07:36:17;98411.25;;;4.63;100.00
44131;BME280;29792;48.726;9.248;2022-11-12T07:38:43;98418.78;;;4.66;100.00
44131;BME280;29792;48.726;9.248;2022-11-12T07:41:14;98420.41;;;4.68;100.00
44131;BME280;29792;48.726;9.248;2022-11-12T07:43:41;98419.56;;;4.68;100.00
44131;BME280;29792;48.726;9.248;2022-11-12T07:46:10;98422.94;;;4.68;100.00
44131;BME280;29792;48.726;9.248;2022-11-12T07:48:37;98421.31;;;4.66;100.00
44131;BME280;29792;48.726;9.248;2022-11-12T07:51:14;98418.84;;;4.64;100.00
44131;BME280;29792;48.726;9.248;2022-11-12T07:53:40;98417.25;;;4.62;100.00
44131;BME280;29792;48.726;9.248;2022-11-12T07:56:09;98418.13;;;4.60;100.00
44131;BME280;29792;48.726;9.248;2022-11-12T07:58:35;98415.59;;;4.60;100.00
44131;BME280;29792;48.726;9.248;2022-11-12T08:03:33;98423.94;;;4.63;100.00
44131;BME280;29792;48.726;9.248;2022-11-12T08:05:59;98426.50;;;4.63;100.00
44131;BME280;29792;48.726;9.248;2022-11-12T08:08:25;98425.63;;;4.64;100.00
44131;BME280;29792;48.726;9.248;2022-11-12T08:10:57;98427.41;;;4.62;100.00
44131;BME280;29792;48.726;9.248;2022-11-12T08:13:23;98422.38;;;4.60;100.00
44131;BME280;29792;48.726;9.248;2022-11-12T08:15:49;98424.84;;;4.62;100.00
44131;BME280;29792;48.726;9.248;2022-11-12T08:18:14;98416.25;;;4.66;100.00
44131;BME280;29792;48.726;9.248;2022-11-12T08:20:40;98423.66;;;4.72;100.00
44131;BME280;29792;48.726;9.248;2022-11-12T08:25:33;98419.00;;;4.84;100.00
44131;BME280;29792;48.726;9.248;2022-11-12T08:27:59;98416.34;;;4.87;100.00
44131;BME280;29792;48.726;9.248;2022-11-12T08:30:28;98423.81;;;4.92;100.00
44131;BME280;29792;48.726;9.248;2022-11-12T08:32:58;98428.72;;;4.96;100.00
44131;BME280;29792;48.726;9.248;2022-11-12T08:35:25;98423.28;;;5.07;100.00
44131;BME280;29792;48.726;9.248;2022-11-12T08:37:55;98419.66;;;5.13;100.00
44131;BME280;29792;48.726;9.248;2022-11-12T08:40:21;98416.09;;;5.18;100.00
44131;BME280;29792;48.726;9.248;2022-11-12T08:42:46;98426.00;;;5.26;100.00
44131;BME280;29792;48.726;9.248;2022-11-12T08:45:11;98424.94;;;5.31;100.00
44131;BME280;29792;48.726;9.248;2022-11-12T08:47:37;98424.75;;;5.36;100.00
44131;BME280;29792;48.726;9.248;2022-11-12T08:50:02;98416.09;;;5.42;100.00
44131;BME280;29792;48.726;9.248;2022-11-12T08:52:27;98423.50;;;5.48;100.00
44131;BME280;29792;48.726;9.248;2022-11-12T08:54:52;98416.41;;;5.56;100.00
44131;BME280;29792;48.726;9.248;2022-11-12T08:57:18;98416.91;;;5.65;100.00
44131;BME280;29792;48.726;9.248;2022-11-12T08:59:43;98425.00;;;5.75;100.00
44131;BME280;29792;48.726;9.248;2022-11-12T09:02:12;98419.69;;;5.81;100.00
44131;BME280;29792;48.726;9.248;2022-11-12T09:04:38;98421.22;;;5.85;100.00
44131;BME280;29792;48.726;9.248;2022-11-12T09:07:03;98418.66;;;5.85;100.00
44131;BME280;29792;48.726;9.248;2022-11-12T09:09:28;98424.50;;;5.89;100.00
44131;BME280;29792;48.726;9.248;2022-11-12T09:11:53;98416.69;;;5.93;100.00
44131;BME280;29792;48.726;9.248;2022-11-12T09:14:19;98421.47;;;6.01;100.00
44131;BME280;29792;48.726;9.248;2022-11-12T09:16:44;98415.41;;;6.05;100.00
44131;BME280;29792;48.726;9.248;2022-11-12T09:19:09;98409.22;;;6.10;100.00
44131;BME280;29792;48.726;9.248;2022-11-12T09:21:36;98405.50;;;6.19;100.00
44131;BME280;29792;48.726;9.248;2022-11-12T09:24:01;98407.72;;;6.27;100.00
44131;BME280;29792;48.726;9.248;2022-11-12T09:26:27;98400.56;;;6.36;100.00
44131;BME280;29792;48.726;9.248;2022-11-12T09:28:52;98403.66;;;6.43;100.00
44131;BME280;29792;48.726;9.248;2022-11-12T09:31:19;98404.38;;;6.46;100.00
44131;BME280;29792;48.726;9.248;2022-11-12T09:33:44;98399.03;;;6.53;100.00
44131;BME280;29792;48.726;9.248;2022-11-12T09:36:09;98398.03;;;6.57;100.00
44131;BME280;29792;48.726;9.248;2022-11-12T09:38:34;98397.88;;;6.60;100.00
44131;BME280;29792;48.726;9.248;2022-11-12T09:41:24;98397.00;;;6.61;100.00
44131;BME280;29792;48.726;9.248;2022-11-12T09:43:53;98398.44;;;6.66;100.00
44131;BME280;29792;48.726;9.248;2022-11-12T09:49:15;98392.84;;;6.78;100.00
44131;BME280;29792;48.726;9.248;2022-11-12T09:51:48;98393.28;;;6.88;100.00
44131;BME280;29792;48.726;9.248;2022-11-12T09:54:24;98401.34;;;6.98;100.00
44131;BME280;29792;48.726;9.248;2022-11-12T09:56:51;98398.56;;;7.04;100.00
44131;BME280;29792;48.726;9.248;2022-11-12T09:59:17;98389.75;;;7.11;100.00
44131;BME280;29792;48.726;9.248;2022-11-12T10:01:56;98391.00;;;7.21;100.00
44131;BME280;29792;48.726;9.248;2022-11-12T10:04:33;98388.72;;;7.34;100.00
44131;BME280;29792;48.726;9.248;2022-11-12T10:09:48;98390.38;;;7.53;100.00
44131;BME280;29792;48.726;9.248;2022-11-12T10:12:25;98388.50;;;7.57;100.00
44131;BME280;29792;48.726;9.248;2022-11-12T10:23:51;98379.66;;;7.83;100.00
44131;BME280;29792;48.726;9.248;2022-11-12T10:26:20;98370.25;;;8.02;100.00
44131;BME280;29792;48.726;9.248;2022-11-12T10:28:49;98376.91;;;8.22;100.00
44131;BME280;29792;48.726;9.248;2022-11-12T10:31:18;98377.91;;;8.36;100.00
44131;BME280;29792;48.726;9.248;2022-11-12T10:33:44;98383.19;;;8.51;100.00
44131;BME280;29792;48.726;9.248;2022-11-12T10:36:19;98377.47;;;8.63;100.00
44131;BME280;29792;48.726;9.248;2022-11-12T10:38:47;98382.88;;;8.74;100.00
44131;BME280;29792;48.726;9.248;2022-11-12T10:41:25;98367.72;;;8.87;100.00
44131;BME280;29792;48.726;9.248;2022-11-12T10:43:53;98372.28;;;8.97;100.00
44131;BME280;29792;48.726;9.248;2022-11-12T10:46:31;98362.63;;;9.02;100.00
44131;BME280;29792;48.726;9.248;2022-11-12T10:49:05;98361.13;;;9.15;100.00
44131;BME280;29792;48.726;9.248;2022-11-12T10:51:36;98360.44;;;9.28;100.00
44131;BME280;29792;48.726;9.248;2022-11-12T10:54:27;98361.44;;;9.41;100.00
44131;BME280;29792;48.726;9.248;2022-11-12T10:56:53;98361.63;;;9.53;100.00
44131;BME280;29792;48.726;9.248;2022-11-12T10:59:20;98356.66;;;9.66;100.00
44131;BME280;29792;48.726;9.248;2022-11-12T11:01:53;98357.81;;;9.76;100.00
44131;BME280;29792;48.726;9.248;2022-11-12T11:04:31;98357.47;;;9.82;100.00
44131;BME280;29792;48.726;9.248;2022-11-12T11:07:06;98359.78;;;9.87;100.00
44131;BME280;29792;48.726;9.248;2022-11-12T11:09:53;98356.78;;;9.94;100.00
44131;BME280;29792;48.726;9.248;2022-11-12T11:12:28;98361.41;;;10.04;100.00
44131;BME280;29792;48.726;9.248;2022-11-12T11:15:20;98350.66;;;10.13;100.00
44131;BME280;29792;48.726;9.248;2022-11-12T11:17:46;98347.69;;;10.20;100.00
44131;BME280;29792;48.726;9.248;2022-11-12T11:20:24;98345.50;;;10.28;100.00
44131;BME280;29792;48.726;9.248;2022-11-12T11:25:27;98340.94;;;10.48;100.00
44131;BME280;29792;48.726;9.248;2022-11-12T11:30:32;98341.63;;;10.65;100.00
44131;BME280;29792;48.726;9.248;2022-11-12T11:33:02;98344.72;;;10.70;100.00
44131;BME280;29792;48.726;9.248;2022-11-12T11:38:21;98334.28;;;10.74;100.00
44131;BME280;29792;48.726;9.248;2022-11-12T11:49:29;98330.81;;;10.89;100.00
44131;BME280;29792;48.726;9.248;2022-11-12T11:52:31;98329.53;;;10.96;100.00
44131;BME280;29792;48.726;9.248;2022-11-12T11:57:57;98312.50;;;11.09;100.00
44131;BME280;29792;48.726;9.248;2022-11-12T12:00:37;98319.97;;;11.12;100.00
44131;BME280;29792;48.726;9.248;2022-11-12T12:03:16;98314.50;;;11.18;100.00
44131;BME280;29792;48.726;9.248;2022-11-12T12:05:48;98316.03;;;11.21;100.00
44131;BME280;29792;48.726;9.248;2022-11-12T12:08:51;98317.06;;;11.18;100.00
44131;BME280;29792;48.726;9.248;2022-11-12T12:17:11;98305.50;;;11.25;99.03
44131;BME280;29792;48.726;9.248;2022-11-12T12:22:27;98299.50;;;11.39;99.67
44131;BME280;29792;48.726;9.248;2022-11-12T12:25:10;98304.16;;;11.46;99.33
44131;BME280;29792;48.726;9.248;2022-11-12T12:27:45;98300.38;;;11.52;98.70
44131;BME280;29792;48.726;9.248;2022-11-12T12:30:17;98307.59;;;11.60;98.27
44131;BME280;29792;48.726;9.248;2022-11-12T12:32:52;98299.53;;;11.66;98.26
44131;BME280;29792;48.726;9.248;2022-11-12T12:35:43;98293.00;;;11.74;98.09
44131;BME280;29792;48.726;9.248;2022-11-12T12:40:58;98298.47;;;11.82;95.09
44131;BME280;29792;48.726;9.248;2022-11-12T12:43:33;98293.44;;;11.81;94.93
44131;BME280;29792;48.726;9.248;2022-11-12T12:46:00;98289.72;;;11.85;95.55
44131;BME280;29792;48.726;9.248;2022-11-12T12:48:39;98286.88;;;11.90;95.44
44131;BME280;29792;48.726;9.248;2022-11-12T12:51:06;98281.25;;;11.97;95.60
44131;BME280;29792;48.726;9.248;2022-11-12T12:53:33;98275.69;;;12.03;95.38
44131;BME280;29792;48.726;9.248;2022-11-12T12:58:48;98275.00;;;12.14;94.91
44131;BME280;29792;48.726;9.248;2022-11-12T13:04:02;98269.66;;;12.30;94.70
44131;BME280;29792;48.726;9.248;2022-11-12T13:06:32;98254.34;;;12.41;94.97
44131;BME280;29792;48.726;9.248;2022-11-12T13:19:31;98259.50;;;12.53;93.21
44131;BME280;29792;48.726;9.248;2022-11-12T13:30:06;98246.13;;;12.61;94.18
44131;BME280;29792;48.726;9.248;2022-11-12T13:32:33;98244.66;;;12.57;93.67
44131;BME280;29792;48.726;9.248;2022-11-12T13:37:53;98255.47;;;12.49;93.85
44131;BME280;29792;48.726;9.248;2022-11-12T13:43:11;98244.88;;;12.41;93.01
44131;BME280;29792;48.726;9.248;2022-11-12T13:45:47;98246.03;;;12.37;93.06
44131;BME280;29792;48.726;9.248;2022-11-12T13:48:20;98256.41;;;12.36;93.01
44131;BME280;29792;48.726;9.248;2022-11-12T13:50:50;98249.63;;;12.35;92.99
44131;BME280;29792;48.726;9.248;2022-11-12T13:53:21;98249.63;;;12.35;93.35
44131;BME280;29792;48.726;9.248;2022-11-12T13:55:49;98251.28;;;12.36;93.40
44131;BME280;29792;48.726;9.248;2022-11-12T13:58:23;98241.00;;;12.36;93.64
44131;BME280;29792;48.726;9.248;2022-11-12T14:00:51;98234.09;;;12.36;93.17
44131;BME280;29792;48.726;9.248;2022-11-12T14:03:18;98232.56;;;12.34;93.57
44131;BME280;29792;48.726;9.248;2022-11-12T14:05:46;98237.69;;;12.34;93.87
44131;BME280;29792;48.726;9.248;2022-11-12T14:08:37;98239.56;;;12.32;93.51
44131;BME280;29792;48.726;9.248;2022-11-12T14:19:25;98232.56;;;12.34;94.50
44131;BME280;29792;48.726;9.248;2022-11-12T14:22:13;98236.78;;;12.35;94.18
44131;BME280;29792;48.726;9.248;2022-11-12T14:24:39;98230.72;;;12.36;94.33
44131;BME280;29792;48.726;9.248;2022-11-12T14:30:08;98224.84;;;12.34;94.55
44131;BME280;29792;48.726;9.248;2022-11-12T14:32:36;98220.63;;;12.33;94.60
44131;BME280;29792;48.726;9.248;2022-11-12T14:37:56;98220.84;;;12.30;94.70
44131;BME280;29792;48.726;9.248;2022-11-12T14:40:24;98222.59;;;12.29;94.62